Time;durP1;ratioP1;P1;durP2;ratioP2;P2;SDS_P1;SDS_P2;PMS_P1;PMS_P2;Temp;Humidity;BMP_temperature;BMP_pressure;BME280_temperature;BME280_humidity;BME280_pressure;Samples;Min_cycle;Max_cycle;Signal;HPM_P1;HPM_P2
2021/04/10 00:01:20;;;;;;;4.23;3.10;;;22.10;48.80;;;;;;5069369;28;20530;-83
2021/04/10 00:03:45;;;;;;;3.97;2.67;;;22.00;48.70;;;;;;5077150;28;20186;-82
2021/04/10 00:06:11;;;;;;;3.60;2.60;;;22.00;48.80;;;;;;5088359;28;20509;-82
2021/04/10 00:08:38;;;;;;;3.80;2.60;;;22.00;48.80;;;;;;5101707;28;20196;-82
2021/04/10 00:11:04;;;;;;;4.20;3.13;;;22.00;48.80;;;;;;5093079;28;20428;-83
2021/04/10 00:13:30;;;;;;;4.30;2.77;;;22.00;48.80;;;;;;5073587;28;20416;-82
2021/04/10 00:15:56;;;;;;;4.70;2.53;;;22.00;48.80;;;;;;5093374;28;20468;-82
2021/04/10 00:18:22;;;;;;;4.63;3.10;;;22.00;48.80;;;;;;5073778;28;20543;-83
2021/04/10 00:20:47;;;;;;;4.10;2.63;;;22.00;48.80;;;;;;5077700;28;20273;-84
2021/04/10 00:23:13;;;;;;;3.70;2.30;;;22.00;48.90;;;;;;5093132;28;20178;-83
2021/04/10 00:25:41;;;;;;;3.30;2.50;;;21.90;48.80;;;;;;5087327;28;20198;-84
2021/04/10 00:28:07;;;;;;;2.97;2.67;;;21.90;48.80;;;;;;5087024;28;20178;-83
2021/04/10 00:30:33;;;;;;;3.63;2.70;;;22.00;48.90;;;;;;5070576;28;20480;-84
2021/04/10 00:32:59;;;;;;;2.90;2.47;;;22.00;49.40;;;;;;5077227;28;20185;-84
2021/04/10 00:35:24;;;;;;;3.73;3.13;;;22.00;48.80;;;;;;5074641;28;20174;-83
2021/04/10 00:37:50;;;;;;;4.33;2.80;;;22.00;48.80;;;;;;5099044;28;20174;-84
2021/04/10 00:40:16;;;;;;;3.30;2.60;;;22.00;48.80;;;;;;5076257;28;20182;-84
2021/04/10 00:42:42;;;;;;;2.87;2.10;;;22.00;48.80;;;;;;5086619;28;20186;-84
2021/04/10 00:45:09;;;;;;;2.53;2.10;;;22.00;48.80;;;;;;5072054;28;20447;-84
2021/04/10 00:47:35;;;;;;;3.17;2.53;;;22.00;48.80;;;;;;5077687;28;20174;-84
2021/04/10 00:50:01;;;;;;;3.47;2.27;;;22.00;48.80;;;;;;5086334;28;20433;-83
2021/04/10 00:52:28;;;;;;;3.90;2.37;;;22.00;48.80;;;;;;5088003;28;20447;-83
2021/04/10 00:54:54;;;;;;;3.70;2.63;;;22.00;48.80;;;;;;5073021;28;20189;-83
2021/04/10 00:57:20;;;;;;;3.20;2.10;;;22.00;48.80;;;;;;5094703;28;20440;-83
2021/04/10 00:59:47;;;;;;;2.97;2.20;;;22.00;48.80;;;;;;5077462;28;20445;-83
2021/04/10 01:02:13;;;;;;;3.93;2.50;;;22.00;48.80;;;;;;5073538;28;20435;-83
2021/04/10 01:04:41;;;;;;;2.90;1.77;;;22.00;48.80;;;;;;5089159;28;20463;-83
2021/04/10 01:07:06;;;;;;;3.67;2.20;;;22.00;48.80;;;;;;5074772;28;20452;-82
2021/04/10 01:09:33;;;;;;;3.30;2.40;;;22.00;48.80;;;;;;5080140;28;20451;-83
2021/04/10 01:12:22;;;;;;;2.70;2.10;;;22.00;48.70;;;;;;5088506;28;20417;-83
2021/04/10 01:15:06;;;;;;;3.80;2.00;;;22.00;48.70;;;;;;5070219;28;20421;-83
2021/04/10 01:17:40;;;;;;;3.23;2.40;;;22.00;48.70;;;;;;5092559;28;20411;-83
2021/04/10 01:20:30;;;;;;;3.53;2.50;;;22.00;48.80;;;;;;5080299;28;20423;-83
2021/04/10 01:23:11;;;;;;;3.07;2.40;;;22.00;48.70;;;;;;5069753;28;20897;-83
2021/04/10 01:25:46;;;;;;;4.27;1.93;;;22.00;48.80;;;;;;5085811;28;20462;-83
2021/04/10 01:28:27;;;;;;;3.20;2.30;;;22.00;48.80;;;;;;5075849;28;20427;-83
2021/04/10 01:30:54;;;;;;;3.40;2.27;;;22.00;48.80;;;;;;5072999;28;20411;-83
2021/04/10 01:33:22;;;;;;;3.27;2.07;;;22.00;48.80;;;;;;5090264;28;20428;-84
2021/04/10 01:35:55;;;;;;;2.77;2.00;;;22.00;48.80;;;;;;5068971;28;20817;-83
2021/04/10 01:38:23;;;;;;;2.90;2.20;;;22.00;48.80;;;;;;5080202;28;20404;-83
2021/04/10 01:40:51;;;;;;;2.80;2.30;;;22.00;49.30;;;;;;5093685;28;20419;-83
2021/04/10 01:43:18;;;;;;;4.20;2.57;;;22.00;48.80;;;;;;5099884;28;20416;-83
2021/04/10 01:45:43;;;;;;;4.03;2.50;;;22.00;48.70;;;;;;5078686;28;20455;-83
2021/04/10 01:48:12;;;;;;;3.23;2.27;;;22.00;48.80;;;;;;5071210;28;20437;-84
2021/04/10 01:50:39;;;;;;;2.93;1.93;;;22.00;48.70;;;;;;5052709;28;20444;-84
2021/04/10 01:53:06;;;;;;;3.20;2.07;;;22.00;48.80;;;;;;5035888;28;20489;-84
2021/04/10 01:55:32;;;;;;;3.67;2.70;;;22.00;48.70;;;;;;5070111;28;20420;-83
2021/04/10 01:57:59;;;;;;;4.10;2.73;;;22.00;48.80;;;;;;5053074;28;20418;-83
2021/04/10 02:00:29;;;;;;;4.23;2.13;;;22.00;48.80;;;;;;5047880;28;20808;-82
2021/04/10 02:02:56;;;;;;;3.73;2.40;;;22.00;48.70;;;;;;5064012;28;20406;-82
2021/04/10 02:05:23;;;;;;;2.03;1.83;;;22.00;48.70;;;;;;5047264;28;20994;-85
2021/04/10 02:07:50;;;;;;;3.50;2.40;;;22.00;48.70;;;;;;5067397;28;20475;-86
2021/04/10 02:10:19;;;;;;;3.83;2.30;;;22.00;48.70;;;;;;5068487;28;20437;-86
2021/04/10 02:12:48;;;;;;;3.10;1.90;;;22.00;48.70;;;;;;5050594;28;20837;-86
2021/04/10 02:15:14;;;;;;;4.03;2.30;;;22.00;48.70;;;;;;5068632;28;20413;-86
2021/04/10 02:17:40;;;;;;;2.40;2.00;;;22.00;48.80;;;;;;5067594;28;20469;-86
2021/04/10 02:20:10;;;;;;;2.60;1.93;;;21.90;48.70;;;;;;5050518;28;20425;-86
2021/04/10 02:22:42;;;;;;;3.60;2.57;;;21.90;48.70;;;;;;5050622;28;20197;-86
2021/04/10 02:25:08;;;;;;;2.80;1.70;;;21.90;48.70;;;;;;5049538;28;20454;-86
2021/04/10 02:27:34;;;;;;;3.40;2.17;;;21.90;48.70;;;;;;5050257;28;20410;-86
2021/04/10 02:30:00;;;;;;;3.40;2.20;;;21.90;48.70;;;;;;5066752;28;20441;-86
2021/04/10 02:32:35;;;;;;;2.80;2.03;;;21.90;48.70;;;;;;5068016;28;20227;-86
2021/04/10 02:35:31;;;;;;;3.80;2.17;;;21.90;48.70;;;;;;5049778;28;20401;-87
2021/04/10 02:37:58;;;;;;;3.20;2.10;;;21.90;48.70;;;;;;5049230;28;20424;-86
2021/04/10 02:40:29;;;;;;;2.10;1.73;;;21.90;48.70;;;;;;5050024;28;20434;-86
2021/04/10 02:42:56;;;;;;;2.30;1.77;;;21.90;48.80;;;;;;5066988;28;20419;-86
2021/04/10 02:45:25;;;;;;;2.73;1.90;;;21.90;48.70;;;;;;5049140;28;20534;-86
2021/04/10 02:47:55;;;;;;;2.77;2.40;;;21.90;48.80;;;;;;5048927;28;20429;-86
2021/04/10 02:50:22;;;;;;;3.10;2.20;;;21.80;48.80;;;;;;5067461;28;20410;-86
2021/04/10 02:52:50;;;;;;;3.03;2.20;;;21.80;48.90;;;;;;5048380;28;20445;-87
2021/04/10 02:55:31;;;;;;;2.20;1.93;;;21.80;48.90;;;;;;5065732;28;20414;-86
2021/04/10 02:58:01;;;;;;;2.87;2.40;;;21.80;48.90;;;;;;5049221;28;20492;-86
2021/04/10 03:00:28;;;;;;;2.60;1.80;;;21.80;49.00;;;;;;5066629;28;20414;-86
2021/04/10 03:02:56;;;;;;;2.30;2.10;;;21.80;49.00;;;;;;5067983;28;20401;-86
2021/04/10 03:05:22;;;;;;;3.70;2.60;;;21.70;49.00;;;;;;5068228;28;20457;-86
2021/04/10 03:07:49;;;;;;;2.00;1.80;;;21.70;49.00;;;;;;5050523;28;20487;-86
2021/04/10 03:10:15;;;;;;;2.90;2.10;;;21.70;49.00;;;;;;5050465;28;20547;-86
2021/04/10 03:12:43;;;;;;;3.20;1.90;;;21.70;49.00;;;;;;5049748;28;20440;-86
2021/04/10 03:15:13;;;;;;;2.80;2.23;;;21.70;49.10;;;;;;5048885;28;20429;-86
2021/04/10 03:17:40;;;;;;;3.07;2.20;;;21.70;49.10;;;;;;5048883;28;20499;-86
2021/04/10 03:20:11;;;;;;;3.73;2.00;;;21.70;49.10;;;;;;5048825;28;20414;-86
2021/04/10 03:22:37;;;;;;;2.80;2.37;;;21.70;49.10;;;;;;5048631;28;20637;-85
2021/04/10 03:25:03;;;;;;;2.77;2.03;;;21.70;49.10;;;;;;5066117;28;20453;-86
2021/04/10 03:27:30;;;;;;;3.33;2.20;;;21.60;49.00;;;;;;5068858;28;20182;-86
2021/04/10 03:29:57;;;;;;;2.23;2.00;;;21.60;49.10;;;;;;5067971;28;20414;-86
2021/04/10 03:32:23;;;;;;;2.60;2.17;;;21.60;49.10;;;;;;5066034;28;20476;-86
2021/04/10 03:34:49;;;;;;;2.43;2.10;;;21.70;49.20;;;;;;5070193;28;20406;-86
2021/04/10 03:37:15;;;;;;;1.93;1.63;;;21.60;49.10;;;;;;5067106;28;20505;-86
2021/04/10 03:39:44;;;;;;;2.13;1.93;;;21.60;49.20;;;;;;5067980;28;20226;-86
2021/04/10 03:42:10;;;;;;;3.57;2.37;;;21.60;49.20;;;;;;5068896;28;20179;-86
2021/04/10 03:44:38;;;;;;;2.97;2.07;;;21.60;49.70;;;;;;5049841;28;20469;-86
2021/04/10 03:47:05;;;;;;;2.43;2.23;;;21.60;49.20;;;;;;5065195;28;20421;-86
2021/04/10 03:49:30;;;;;;;4.80;2.20;;;21.60;49.20;;;;;;5066301;28;20899;-86
2021/04/10 03:51:56;;;;;;;2.80;1.90;;;21.60;49.20;;;;;;5065370;28;20456;-86
2021/04/10 03:54:28;;;;;;;3.50;2.40;;;21.60;49.30;;;;;;5064421;28;20179;-87
2021/04/10 03:56:54;;;;;;;2.53;1.90;;;21.60;49.30;;;;;;5064833;28;20569;-86
2021/04/10 03:59:19;;;;;;;3.27;2.63;;;21.60;49.30;;;;;;5065102;28;20414;-86
2021/04/10 04:01:45;;;;;;;3.17;1.90;;;21.50;49.30;;;;;;5064847;28;20185;-86
2021/04/10 04:04:11;;;;;;;2.80;2.00;;;21.50;49.30;;;;;;5063085;28;20201;-85
2021/04/10 04:06:37;;;;;;;3.03;1.97;;;21.40;49.30;;;;;;5048340;28;20637;-86
2021/04/10 04:09:02;;;;;;;4.20;2.10;;;21.50;49.40;;;;;;5064403;28;20201;-86
2021/04/10 04:11:28;;;;;;;2.60;2.00;;;21.50;49.40;;;;;;5066477;28;20258;-86
2021/04/10 04:13:54;;;;;;;2.30;1.80;;;21.50;49.40;;;;;;5049485;28;20186;-86
2021/04/10 04:16:22;;;;;;;2.50;2.00;;;21.50;49.40;;;;;;5064009;28;20179;-86
2021/04/10 04:18:48;;;;;;;2.90;1.77;;;21.50;49.60;;;;;;5066748;28;20217;-86
2021/04/10 04:21:15;;;;;;;3.77;2.00;;;21.50;49.60;;;;;;5074834;28;20425;-86
2021/04/10 04:23:40;;;;;;;3.07;1.80;;;21.50;49.50;;;;;;5064872;28;20179;-86
2021/04/10 04:26:06;;;;;;;3.20;2.30;;;21.50;49.60;;;;;;5089373;28;20924;-86
2021/04/10 04:28:32;;;;;;;2.70;2.10;;;21.50;49.70;;;;;;5095231;28;20209;-87
2021/04/10 04:30:58;;;;;;;2.60;1.90;;;21.40;49.50;;;;;;5067470;28;20251;-87
2021/04/10 04:33:24;;;;;;;5.00;2.13;;;21.50;49.50;;;;;;5082965;28;20182;-87
2021/04/10 04:35:50;;;;;;;3.67;2.27;;;21.50;49.40;;;;;;5080288;28;20416;-86
2021/04/10 04:38:16;;;;;;;4.10;2.50;;;21.50;49.50;;;;;;5072755;28;20276;-87
2021/04/10 04:40:41;;;;;;;3.20;1.87;;;21.50;49.40;;;;;;5069384;28;20189;-87
2021/04/10 04:43:07;;;;;;;2.60;1.73;;;21.50;49.50;;;;;;5083194;28;20185;-86
2021/04/10 04:45:33;;;;;;;2.30;1.73;;;21.50;49.50;;;;;;5073447;28;20625;-87
2021/04/10 04:47:58;;;;;;;2.50;2.03;;;21.50;49.40;;;;;;5082520;28;20636;-87
2021/04/10 04:50:24;;;;;;;2.10;1.83;;;21.50;49.40;;;;;;5088712;28;20189;-86
2021/04/10 04:52:50;;;;;;;2.40;1.70;;;21.50;49.50;;;;;;5082411;28;20170;-86
2021/04/10 04:55:15;;;;;;;2.83;1.70;;;21.50;49.40;;;;;;5100012;28;20220;-86
2021/04/10 04:57:41;;;;;;;2.93;1.90;;;21.50;49.30;;;;;;5067807;28;20198;-86
2021/04/10 05:00:07;;;;;;;3.30;2.77;;;21.50;49.30;;;;;;5093593;28;20197;-86
2021/04/10 05:02:33;;;;;;;2.50;1.93;;;21.50;49.30;;;;;;5064049;28;20179;-86
2021/04/10 05:04:59;;;;;;;2.03;1.70;;;21.60;49.50;;;;;;5082984;28;20562;-86
2021/04/10 05:07:25;;;;;;;2.20;1.80;;;21.60;49.30;;;;;;5067708;28;20209;-86
2021/04/10 05:09:50;;;;;;;2.93;2.27;;;21.60;49.30;;;;;;5083615;28;20173;-86
2021/04/10 05:12:16;;;;;;;3.17;2.03;;;21.60;49.30;;;;;;5083295;28;20166;-86
2021/04/10 05:14:42;;;;;;;2.10;1.70;;;21.60;49.30;;;;;;5082792;28;20365;-86
2021/04/10 05:17:07;;;;;;;2.50;1.77;;;21.60;49.30;;;;;;5069509;28;20596;-86
2021/04/10 05:19:34;;;;;;;2.90;1.70;;;21.70;49.30;;;;;;5072197;28;20173;-86
2021/04/10 05:21:59;;;;;;;2.43;1.90;;;21.60;49.20;;;;;;5083359;28;20213;-86
2021/04/10 05:24:25;;;;;;;2.40;2.20;;;21.60;49.10;;;;;;5087252;28;20412;-86
2021/04/10 05:26:52;;;;;;;2.00;1.80;;;21.70;49.20;;;;;;5068389;28;20178;-86
2021/04/10 05:29:17;;;;;;;3.50;2.40;;;21.60;49.10;;;;;;5071548;28;20185;-86
2021/04/10 05:31:47;;;;;;;2.23;1.60;;;21.50;49.00;;;;;;5073657;28;20424;-86
2021/04/10 05:34:12;;;;;;;2.07;1.70;;;21.70;49.10;;;;;;5072204;28;20174;-86
2021/04/10 05:36:38;;;;;;;2.43;1.80;;;21.70;49.00;;;;;;5086383;28;20473;-86
2021/04/10 05:39:04;;;;;;;2.40;1.67;;;21.70;49.20;;;;;;5069587;28;20265;-86
2021/04/10 05:41:30;;;;;;;3.00;1.70;;;21.60;49.00;;;;;;5069882;28;20257;-87
2021/04/10 05:43:55;;;;;;;2.20;1.67;;;21.70;49.10;;;;;;5070083;28;20412;-86
2021/04/10 05:46:21;;;;;;;2.87;2.20;;;21.70;49.10;;;;;;5069195;28;20216;-86
2021/04/10 05:48:47;;;;;;;2.00;1.57;;;21.70;49.20;;;;;;5069957;28;20174;-86
2021/04/10 05:51:12;;;;;;;2.60;1.90;;;21.70;49.00;;;;;;5069553;28;20182;-86
2021/04/10 05:53:42;;;;;;;1.63;1.30;;;21.70;49.00;;;;;;5086876;28;20178;-86
2021/04/10 05:56:07;;;;;;;2.03;1.73;;;21.70;49.00;;;;;;5087352;28;20182;-87
2021/04/10 05:58:33;;;;;;;2.67;1.90;;;21.70;49.10;;;;;;5069788;28;20416;-86
2021/04/10 06:00:59;;;;;;;1.70;1.47;;;21.70;49.00;;;;;;5087165;28;20170;-86
2021/04/10 06:03:24;;;;;;;1.80;1.50;;;21.70;49.00;;;;;;5069554;28;20181;-86
2021/04/10 06:05:50;;;;;;;2.97;1.97;;;21.70;49.10;;;;;;5086774;28;20553;-87
2021/04/10 06:08:16;;;;;;;3.23;1.90;;;21.70;49.00;;;;;;5069556;28;20534;-86
2021/04/10 06:10:42;;;;;;;1.60;1.43;;;21.70;49.00;;;;;;5088464;28;20166;-87
2021/04/10 06:13:10;;;;;;;1.73;1.57;;;21.70;49.10;;;;;;5087179;28;20177;-87
2021/04/10 06:15:36;;;;;;;1.93;1.50;;;21.70;48.80;;;;;;5072037;28;20178;-86
2021/04/10 06:18:03;;;;;;;2.23;1.80;;;21.70;49.00;;;;;;5072498;28;20441;-86
2021/04/10 06:20:29;;;;;;;2.60;1.80;;;21.70;48.90;;;;;;5088580;28;20194;-87
2021/04/10 06:22:55;;;;;;;2.60;1.97;;;21.60;48.90;;;;;;5073358;28;20911;-87
2021/04/10 06:25:21;;;;;;;2.43;1.60;;;21.70;49.10;;;;;;5072211;28;20216;-86
2021/04/10 06:27:47;;;;;;;2.50;1.80;;;21.70;48.90;;;;;;5071721;28;20194;-86
2021/04/10 06:30:13;;;;;;;2.93;2.13;;;21.70;49.00;;;;;;5091188;28;20155;-86
2021/04/10 06:32:39;;;;;;;2.90;1.90;;;21.80;48.90;;;;;;5070311;28;20265;-86
2021/04/10 06:35:05;;;;;;;3.90;1.60;;;21.70;48.90;;;;;;5069099;28;20429;-86
2021/04/10 06:37:31;;;;;;;2.50;1.70;;;21.80;48.90;;;;;;5070252;28;20231;-86
2021/04/10 06:39:57;;;;;;;3.00;2.10;;;21.70;48.90;;;;;;5068600;28;20503;-86
2021/04/10 06:42:22;;;;;;;2.70;1.60;;;21.80;49.00;;;;;;5088662;28;20170;-86
2021/04/10 06:44:48;;;;;;;1.83;1.43;;;21.70;49.10;;;;;;5088274;28;20198;-86
2021/04/10 06:47:22;;;;;;;1.93;1.80;;;21.80;49.00;;;;;;5070602;28;20171;-85
2021/04/10 06:49:52;;;;;;;1.80;1.50;;;21.80;48.80;;;;;;5087304;28;20170;-86
2021/04/10 06:52:19;;;;;;;2.67;1.80;;;21.80;48.90;;;;;;5071369;28;20436;-85
2021/04/10 06:55:15;;;;;;;2.33;1.60;;;21.80;48.90;;;;;;5087576;28;20485;-85
2021/04/10 06:57:58;;;;;;;1.67;1.30;;;21.80;48.80;;;;;;5069796;28;20433;-85
2021/04/10 07:00:26;;;;;;;1.77;1.30;;;21.80;48.80;;;;;;5088000;28;20404;-86
2021/04/10 07:02:55;;;;;;;2.30;1.77;;;21.80;48.90;;;;;;5088088;28;20458;-86
2021/04/10 07:05:21;;;;;;;1.63;1.30;;;21.80;48.90;;;;;;5087500;28;20519;-86
2021/04/10 07:07:48;;;;;;;2.10;1.90;;;21.80;49.10;;;;;;5069812;28;20413;-86
2021/04/10 07:10:14;;;;;;;1.93;1.27;;;21.90;48.90;;;;;;5069720;28;20420;-86
2021/04/10 07:12:40;;;;;;;2.57;1.73;;;21.80;49.00;;;;;;5070422;28;20415;-86
2021/04/10 07:15:11;;;;;;;1.73;1.33;;;21.80;48.90;;;;;;5070003;28;20408;-86
2021/04/10 07:17:37;;;;;;;2.43;1.53;;;21.80;49.00;;;;;;5087803;28;20428;-86
2021/04/10 07:20:36;;;;;;;3.27;1.80;;;21.80;48.90;;;;;;5069497;28;20996;-85
2021/04/10 07:23:08;;;;;;;3.20;1.90;;;21.80;48.80;;;;;;5063721;28;20417;-86
2021/04/10 07:25:37;;;;;;;3.00;1.97;;;21.80;48.90;;;;;;5070265;28;20461;-86
2021/04/10 07:28:27;;;;;;;2.20;1.60;;;21.80;48.90;;;;;;5089066;28;20431;-86
2021/04/10 07:31:01;;;;;;;2.47;1.83;;;21.80;48.90;;;;;;5070199;28;20428;-86
2021/04/10 07:33:35;;;;;;;1.93;1.50;;;21.80;48.90;;;;;;5087740;28;20393;-88
2021/04/10 07:36:03;;;;;;;1.87;1.40;;;21.80;49.00;;;;;;5088120;28;20388;-86
2021/04/10 07:38:37;;;;;;;1.87;1.60;;;21.80;49.00;;;;;;5086928;28;20492;-86
2021/04/10 07:41:15;;;;;;;2.33;2.10;;;21.80;48.90;;;;;;5089273;28;20393;-87
2021/04/10 07:43:45;;;;;;;2.80;1.83;;;21.80;49.00;;;;;;5088662;28;20392;-87
2021/04/10 07:46:23;;;;;;;1.50;1.20;;;21.90;49.00;;;;;;5072384;28;20460;-87
2021/04/10 07:49:12;;;;;;;2.13;1.77;;;21.80;48.80;;;;;;5089245;28;20429;-87
2021/04/10 07:52:05;;;;;;;1.93;1.30;;;21.80;48.80;;;;;;5071603;28;20415;-87
2021/04/10 07:54:38;;;;;;;1.37;1.20;;;21.80;48.80;;;;;;5070967;28;20392;-87
2021/04/10 07:57:08;;;;;;;2.17;1.60;;;21.80;48.80;;;;;;5070508;28;20902;-86
2021/04/10 07:59:56;;;;;;;1.53;1.30;;;21.80;48.80;;;;;;5070954;28;20582;-87
2021/04/10 08:20:40;;;;;;;;;;;;;;;;;;;;;
2021/04/10 08:23:35;;;;;;;2.17;1.47;;;21.90;49.10;;;;;;4935694;29;20437;-84
2021/04/10 08:26:35;;;;;;;3.87;2.00;;;22.00;49.30;;;;;;4951244;29;20461;-84
2021/04/10 08:29:18;;;;;;;;;;;;;;;;;;;;;
2021/04/10 08:32:01;;;;;;;2.10;1.70;;;22.00;49.00;;;;;;4928730;29;20476;-84
2021/04/10 08:38:43;;;;;;;1.93;1.63;;;22.10;49.70;;;;;;4890832;29;20475;-84
2021/04/10 08:47:54;;;;;;;2.33;1.30;;;22.10;49.00;;;;;;4909575;29;20391;-88
2021/04/10 08:50:55;;;;;;;2.40;1.60;;;22.10;49.60;;;;;;4908954;29;20935;-84
2021/04/10 08:57:14;;;;;;;2.40;1.80;;;22.20;49.10;;;;;;4867194;29;20487;-84
2021/04/10 09:00:09;;;;;;;1.93;1.70;;;22.10;49.60;;;;;;4871423;29;20481;-85
2021/04/10 09:02:49;;;;;;;2.87;1.70;;;22.20;49.40;;;;;;4856661;29;20434;-84
2021/04/10 09:05:23;;;;;;;1.70;1.53;;;22.20;49.10;;;;;;4874909;29;20462;-84
2021/04/10 09:08:00;;;;;;;2.20;1.53;;;22.20;49.10;;;;;;4871376;29;20430;-85
2021/04/10 09:10:31;;;;;;;2.07;1.60;;;22.20;49.10;;;;;;4855911;29;20423;-85
2021/04/10 09:16:39;;;;;;;2.03;1.67;;;22.40;49.10;;;;;;4854830;29;20392;-85
2021/04/10 09:19:16;;;;;;;2.67;1.80;;;22.30;49.00;;;;;;4874534;29;20394;-84
2021/04/10 09:21:43;;;;;;;2.43;1.80;;;22.30;49.00;;;;;;4928089;29;20936;-84
2021/04/10 09:24:23;;;;;;;2.23;1.90;;;22.30;49.40;;;;;;4966449;29;20418;-85
2021/04/10 09:27:06;;;;;;;3.00;1.50;;;22.40;49.10;;;;;;4988218;28;20529;-85
2021/04/10 09:29:43;;;;;;;1.93;1.40;;;22.30;49.00;;;;;;5064689;28;20827;-85
2021/04/10 09:32:10;;;;;;;2.13;1.30;;;22.30;49.00;;;;;;5047949;28;20794;-85
2021/04/10 09:34:56;;;;;;;2.57;1.50;;;22.30;49.00;;;;;;5065161;28;20402;-85
2021/04/10 09:37:22;;;;;;;1.73;1.50;;;22.40;49.00;;;;;;5066231;28;20398;-85
2021/04/10 09:39:59;;;;;;;1.87;1.40;;;22.40;49.40;;;;;;5047798;28;20445;-84
2021/04/10 09:45:19;;;;;;;2.33;1.70;;;22.40;49.00;;;;;;5066014;28;20452;-86
2021/04/10 09:47:58;;;;;;;3.50;1.70;;;22.40;49.00;;;;;;5066312;28;20401;-85
2021/04/10 09:50:32;;;;;;;2.50;1.40;;;22.40;49.30;;;;;;5065512;28;20930;-84
2021/04/10 09:53:07;;;;;;;3.13;1.80;;;22.40;49.00;;;;;;5048345;28;20600;-84
2021/04/10 09:55:38;;;;;;;6.17;1.70;;;22.40;49.00;;;;;;5048451;28;20413;-84
2021/04/10 09:58:09;;;;;;;2.90;1.50;;;22.40;49.00;;;;;;5048516;28;20420;-84
2021/04/10 10:00:53;;;;;;;3.73;1.63;;;22.40;48.90;;;;;;5081121;28;20436;-83
2021/04/10 10:03:21;;;;;;;3.13;1.30;;;22.40;48.90;;;;;;5071907;28;20468;-84
2021/04/10 10:05:54;;;;;;;1.90;1.30;;;22.40;48.90;;;;;;5090289;28;20452;-84
2021/04/10 10:08:28;;;;;;;2.33;1.40;;;22.40;49.10;;;;;;5090893;28;20401;-84
2021/04/10 10:11:05;;;;;;;2.70;1.60;;;22.40;48.90;;;;;;5089868;28;20545;-84
2021/04/10 10:13:33;;;;;;;3.13;1.60;;;22.50;49.10;;;;;;5090043;28;20420;-84
2021/04/10 10:15:59;;;;;;;2.67;1.93;;;22.40;49.00;;;;;;5090934;28;20408;-84
2021/04/10 10:18:33;;;;;;;2.30;1.70;;;22.50;49.50;;;;;;5089806;28;20411;-84
2021/04/10 10:21:14;;;;;;;2.20;1.23;;;22.50;49.00;;;;;;5072750;28;20415;-84
2021/04/10 10:23:53;;;;;;;2.63;1.60;;;22.50;48.90;;;;;;5090495;28;20764;-83
2021/04/10 10:26:35;;;;;;;4.23;1.80;;;22.50;49.00;;;;;;5072022;28;21069;-84
2021/04/10 10:29:13;;;;;;;1.70;1.20;;;22.50;49.00;;;;;;5090940;28;20388;-84
2021/04/10 10:31:46;;;;;;;5.13;1.80;;;22.50;49.10;;;;;;5072490;28;20524;-84
2021/04/10 10:34:15;;;;;;;2.00;1.70;;;22.50;49.00;;;;;;5089600;28;20416;-84
2021/04/10 10:36:42;;;;;;;5.77;1.60;;;22.50;49.00;;;;;;5089576;28;20420;-84
2021/04/10 10:39:25;;;;;;;2.07;1.30;;;22.50;49.10;;;;;;5090139;28;20408;-84
2021/04/10 10:41:51;;;;;;;1.90;1.40;;;22.50;49.00;;;;;;5072217;28;20408;-84
2021/04/10 10:44:23;;;;;;;2.00;1.20;;;22.50;49.40;;;;;;5071789;28;20421;-84
2021/04/10 10:47:00;;;;;;;2.10;1.47;;;22.50;49.10;;;;;;5071770;28;20428;-84
2021/04/10 10:49:26;;;;;;;2.43;1.80;;;22.50;49.00;;;;;;5089741;28;20499;-84
2021/04/10 10:51:53;;;;;;;2.13;1.60;;;22.50;49.10;;;;;;5071949;28;20409;-84
2021/04/10 10:54:29;;;;;;;4.50;1.77;;;22.50;49.00;;;;;;5071373;28;20470;-83
2021/04/10 10:56:55;;;;;;;1.43;1.20;;;22.50;49.10;;;;;;5072027;28;20420;-84
2021/04/10 10:59:27;;;;;;;3.70;1.57;;;22.50;49.30;;;;;;5090392;28;20436;-85
2021/04/10 11:01:53;;;;;;;2.00;1.50;;;22.50;49.30;;;;;;5071370;28;20246;-86
2021/04/10 11:08:05;;;;;;;1.97;1.40;;;22.50;48.90;;;;;;4988298;28;20755;-84
2021/04/10 11:10:41;;;;;;;2.90;1.63;;;22.50;49.30;;;;;;4989918;28;20413;-84
2021/04/10 11:13:10;;;;;;;2.93;1.50;;;22.50;49.00;;;;;;4971881;28;20271;-85
2021/04/10 11:15:48;;;;;;;2.00;1.40;;;22.50;49.00;;;;;;4988432;28;20883;-84
2021/04/10 11:18:42;;;;;;;3.40;1.70;;;22.50;49.00;;;;;;4973528;28;20417;-84
2021/04/10 11:21:36;;;;;;;2.57;1.50;;;22.50;48.90;;;;;;4989203;28;20421;-84
2021/04/10 11:24:24;;;;;;;3.13;1.60;;;22.50;49.00;;;;;;4990095;28;20421;-85
2021/04/10 11:26:55;;;;;;;2.50;2.03;;;22.50;48.90;;;;;;4989133;28;20488;-85
2021/04/10 11:29:35;;;;;;;1.70;1.30;;;22.50;49.00;;;;;;4973226;28;20445;-85
2021/04/10 11:39:05;;;;;;;1.80;1.10;;;22.50;49.00;;;;;;5056118;28;20431;-85
2021/04/10 11:41:44;;;;;;;1.70;1.20;;;22.40;49.20;;;;;;5069021;28;20419;-85
2021/04/10 11:44:10;;;;;;;1.93;1.43;;;22.40;49.30;;;;;;5087835;28;20503;-85
2021/04/10 11:46:41;;;;;;;1.63;1.30;;;22.40;49.30;;;;;;5069224;28;20484;-86
2021/04/10 11:53:19;;;;;;;1.20;1.00;;;22.40;49.00;;;;;;5088162;28;20388;-85
2021/04/10 12:02:42;;;;;;;2.17;1.80;;;22.30;49.00;;;;;;4986541;28;20420;-85
2021/04/10 12:05:30;;;;;;;1.67;0.97;;;22.30;49.10;;;;;;4971670;28;20840;-85
2021/04/10 12:08:19;;;;;;;1.90;1.60;;;22.30;49.10;;;;;;4970761;28;20441;-86
2021/04/10 12:11:09;;;;;;;2.50;1.20;;;22.30;49.10;;;;;;4970381;28;20417;-85
2021/04/10 12:13:44;;;;;;;3.00;1.60;;;22.30;49.10;;;;;;4970693;28;20915;-85
2021/04/10 12:16:48;;;;;;;2.07;1.50;;;22.20;49.20;;;;;;4970222;28;20417;-86
2021/04/10 12:19:24;;;;;;;3.20;1.37;;;22.20;49.10;;;;;;4969957;28;20425;-86
2021/04/10 12:21:53;;;;;;;1.90;1.40;;;22.20;49.20;;;;;;4969511;28;20424;-85
2021/04/10 12:24:27;;;;;;;1.50;1.40;;;22.20;49.20;;;;;;4970373;28;20421;-85
2021/04/10 12:27:05;;;;;;;2.10;1.47;;;22.20;49.20;;;;;;4970751;28;20417;-85
2021/04/10 12:29:38;;;;;;;2.90;1.30;;;22.20;49.20;;;;;;5030244;28;20500;-86
2021/04/10 12:32:14;;;;;;;3.23;1.77;;;22.20;49.20;;;;;;5069021;28;20483;-86
2021/04/10 12:34:58;;;;;;;1.70;1.30;;;22.20;49.20;;;;;;5066820;28;20921;-85
2021/04/10 12:37:39;;;;;;;2.10;1.50;;;22.20;49.10;;;;;;5066888;28;20464;-85
2021/04/10 12:40:26;;;;;;;2.27;1.50;;;22.20;49.20;;;;;;5087367;28;20384;-86
2021/04/10 12:42:57;;;;;;;2.50;1.53;;;22.20;49.20;;;;;;5070445;28;20417;-85
2021/04/10 12:45:31;;;;;;;1.63;1.40;;;22.20;49.20;;;;;;5068688;28;20460;-84
2021/04/10 12:48:12;;;;;;;1.77;1.40;;;22.20;49.10;;;;;;5087723;28;20476;-85
2021/04/10 12:50:44;;;;;;;2.07;1.67;;;22.10;49.10;;;;;;5087032;28;20413;-85
2021/04/10 12:53:59;;;;;;;1.73;1.50;;;22.20;49.60;;;;;;5068797;28;20413;-85
2021/04/10 12:56:47;;;;;;;3.00;1.70;;;22.20;49.20;;;;;;5086482;28;20452;-85
2021/04/10 12:59:43;;;;;;;2.47;1.90;;;22.20;49.10;;;;;;5087871;28;20404;-86
2021/04/10 13:02:11;;;;;;;2.23;1.70;;;22.20;49.30;;;;;;5070287;28;20475;-85
2021/04/10 13:11:06;;;;;;;2.00;1.60;;;22.10;49.10;;;;;;4986086;28;20384;-85
2021/04/10 13:13:32;;;;;;;5.60;2.20;;;22.10;49.50;;;;;;4987438;28;20477;-83
2021/04/10 13:16:02;;;;;;;2.10;1.70;;;22.10;49.50;;;;;;4986176;28;20413;-85
2021/04/10 13:18:28;;;;;;;3.53;1.60;;;22.10;49.40;;;;;;4986835;28;20201;-84
2021/04/10 13:20:54;;;;;;;2.30;1.70;;;22.10;49.30;;;;;;4986735;28;20429;-84
2021/04/10 13:23:55;;;;;;;;;;;;;;;;;;;;;
2021/04/10 13:29:42;;;;;;;2.30;1.50;;;22.10;49.10;;;;;;4981126;28;20385;-82
2021/04/10 13:35:35;;;;;;;2.03;1.33;;;22.10;49.10;;;;;;4962627;28;20165;-83
2021/04/10 13:38:00;;;;;;;2.03;1.60;;;22.10;49.40;;;;;;4965812;29;20437;-82
2021/04/10 13:40:26;;;;;;;2.03;1.73;;;22.10;49.50;;;;;;4965027;29;20434;-82
2021/04/10 13:49:28;;;;;;;2.30;1.93;;;22.10;49.20;;;;;;5065748;28;20381;-81
2021/04/10 13:51:57;;;;;;;2.47;1.60;;;22.10;49.70;;;;;;5065055;28;20452;-82
2021/04/10 13:54:25;;;;;;;2.83;1.90;;;22.10;49.30;;;;;;5047729;28;20418;-82
2021/04/10 13:56:53;;;;;;;4.23;2.17;;;22.10;49.60;;;;;;5064264;28;20425;-82
2021/04/10 13:59:19;;;;;;;2.60;2.40;;;22.10;49.40;;;;;;5064942;28;20417;-82
2021/04/10 14:01:50;;;;;;;2.73;2.10;;;22.10;49.40;;;;;;5047746;28;20503;-82
2021/04/10 14:04:32;;;;;;;3.50;2.40;;;22.10;49.30;;;;;;5065054;28;20184;-82
2021/04/10 14:07:00;;;;;;;2.90;1.80;;;22.10;49.30;;;;;;5048295;28;20420;-82
2021/04/10 14:10:08;;;;;;;6.33;1.90;;;22.10;49.50;;;;;;5047202;28;20432;-82
2021/04/10 14:12:38;;;;;;;2.00;1.70;;;22.10;49.20;;;;;;5063237;28;20408;-81
2021/04/10 14:15:11;;;;;;;3.13;1.60;;;22.10;49.30;;;;;;5064223;28;20414;-82
2021/04/10 14:17:37;;;;;;;2.10;1.73;;;22.10;49.30;;;;;;5048696;28;20509;-82
2021/04/10 14:20:05;;;;;;;2.77;2.00;;;22.10;49.40;;;;;;5065809;28;20394;-82
2021/04/10 14:22:31;;;;;;;2.73;1.70;;;22.10;49.30;;;;;;5047148;28;20182;-82
2021/04/10 14:24:57;;;;;;;2.00;1.70;;;22.10;49.30;;;;;;5047837;28;20485;-82
2021/04/10 14:27:22;;;;;;;2.80;1.80;;;22.10;49.30;;;;;;5066421;28;20166;-83
2021/04/10 14:29:48;;;;;;;2.80;1.60;;;22.10;49.20;;;;;;5066303;28;20171;-83
2021/04/10 14:32:15;;;;;;;2.60;1.80;;;22.10;49.50;;;;;;5066455;28;20617;-83